sensor_id;sensor_type;location;lat;lon;timestamp;temperature;humidity
1992;DHT22;997;48.448;8.924;2023-06-10T09:44:20;25.60;99.90
1992;DHT22;997;48.448;8.924;2023-06-10T09:46:50;25.70;99.90
1992;DHT22;997;48.448;8.924;2023-06-10T09:49:17;25.90;99.90
1992;DHT22;997;48.448;8.924;2023-06-10T09:51:53;26.10;99.90
1992;DHT22;997;48.448;8.924;2023-06-10T09:54:20;26.30;99.90
1992;DHT22;997;48.448;8.924;2023-06-10T09:56:51;26.30;99.90
1992;DHT22;997;48.448;8.924;2023-06-10T09:59:30;26.30;99.90
1992;DHT22;997;48.448;8.924;2023-06-10T10:01:57;26.10;99.90
1992;DHT22;997;48.448;8.924;2023-06-10T10:04:26;26.10;99.90
1992;DHT22;997;48.448;8.924;2023-06-10T10:06:53;26.10;99.90
1992;DHT22;997;48.448;8.924;2023-06-10T10:09:19;26.30;99.90
1992;DHT22;997;48.448;8.924;2023-06-10T10:11:46;26.50;99.90
1992;DHT22;997;48.448;8.924;2023-06-10T10:14:13;26.70;99.90
1992;DHT22;997;48.448;8.924;2023-06-10T10:16:42;26.70;99.90
1992;DHT22;997;48.448;8.924;2023-06-10T10:19:24;26.70;99.90
1992;DHT22;997;48.448;8.924;2023-06-10T10:21:53;26.60;99.90
1992;DHT22;997;48.448;8.924;2023-06-10T10:24:30;26.70;99.90
1992;DHT22;997;48.448;8.924;2023-06-10T10:26:58;26.80;99.90
1992;DHT22;997;48.448;8.924;2023-06-10T10:29:33;26.70;99.90
1992;DHT22;997;48.448;8.924;2023-06-10T10:32:00;26.80;99.90
1992;DHT22;997;48.448;8.924;2023-06-10T10:37:47;26.80;99.90
1992;DHT22;997;48.448;8.924;2023-06-10T10:40:13;26.70;99.90
1992;DHT22;997;48.448;8.924;2023-06-10T10:42:40;26.80;99.90
1992;DHT22;997;48.448;8.924;2023-06-10T10:45:07;26.70;99.90
1992;DHT22;997;48.448;8.924;2023-06-10T10:47:34;26.90;99.90
1992;DHT22;997;48.448;8.924;2023-06-10T10:50:01;26.90;99.90
1992;DHT22;997;48.448;8.924;2023-06-10T10:55:18;26.90;99.90
1992;DHT22;997;48.448;8.924;2023-06-10T10:57:44;26.90;99.90
1992;DHT22;997;48.448;8.924;2023-06-10T11:00:11;27.00;99.90
1992;DHT22;997;48.448;8.924;2023-06-10T11:02:44;27.10;99.90
1992;DHT22;997;48.448;8.924;2023-06-10T11:05:37;27.30;99.90
1992;DHT22;997;48.448;8.924;2023-06-10T11:08:08;27.50;99.90
1992;DHT22;997;48.448;8.924;2023-06-10T11:10:36;27.50;99.90
1992;DHT22;997;48.448;8.924;2023-06-10T11:13:21;27.40;99.90
1992;DHT22;997;48.448;8.924;2023-06-10T11:15:49;27.50;99.90
1992;DHT22;997;48.448;8.924;2023-06-10T11:18:25;27.60;99.90
1992;DHT22;997;48.448;8.924;2023-06-10T11:20:58;27.80;99.90
1992;DHT22;997;48.448;8.924;2023-06-10T11:29:01;28.00;99.90
1992;DHT22;997;48.448;8.924;2023-06-10T11:31:28;27.80;99.90
1992;DHT22;997;48.448;8.924;2023-06-10T11:33:56;27.90;99.90
1992;DHT22;997;48.448;8.924;2023-06-10T11:36:23;27.90;99.90
1992;DHT22;997;48.448;8.924;2023-06-10T11:38:50;27.90;99.90
1992;DHT22;997;48.448;8.924;2023-06-10T11:41:18;27.90;99.90
1992;DHT22;997;48.448;8.924;2023-06-10T11:43:45;27.60;99.90
1992;DHT22;997;48.448;8.924;2023-06-10T11:46:14;27.50;99.90
1992;DHT22;997;48.448;8.924;2023-06-10T11:48:49;27.60;99.90
1992;DHT22;997;48.448;8.924;2023-06-10T11:51:15;27.70;99.70
1992;DHT22;997;48.448;8.924;2023-06-10T11:53:44;27.80;99.90
1992;DHT22;997;48.448;8.924;2023-06-10T11:56:10;27.90;99.90
1992;DHT22;997;48.448;8.924;2023-06-10T11:58:36;28.20;99.00
1992;DHT22;997;48.448;8.924;2023-06-10T12:01:01;28.20;98.20
1992;DHT22;997;48.448;8.924;2023-06-10T12:03:35;28.30;98.60
1992;DHT22;997;48.448;8.924;2023-06-10T12:06:05;28.40;99.00
1992;DHT22;997;48.448;8.924;2023-06-10T12:08:31;28.60;98.40
1992;DHT22;997;48.448;8.924;2023-06-10T12:10:57;28.80;99.00
1992;DHT22;997;48.448;8.924;2023-06-10T12:13:26;29.10;98.40
1992;DHT22;997;48.448;8.924;2023-06-10T12:15:52;29.30;97.50
1992;DHT22;997;48.448;8.924;2023-06-10T12:18:18;29.20;95.40
1992;DHT22;997;48.448;8.924;2023-06-10T12:20:44;28.90;95.70
1992;DHT22;997;48.448;8.924;2023-06-10T12:23:11;28.90;97.00
1992;DHT22;997;48.448;8.924;2023-06-10T12:25:37;28.90;95.10
1992;DHT22;997;48.448;8.924;2023-06-10T12:28:04;28.90;94.90
1992;DHT22;997;48.448;8.924;2023-06-10T12:30:30;28.60;94.90
1992;DHT22;997;48.448;8.924;2023-06-10T12:32:56;28.40;95.90
1992;DHT22;997;48.448;8.924;2023-06-10T12:35:24;28.50;97.10
1992;DHT22;997;48.448;8.924;2023-06-10T12:38:04;28.70;95.90
1992;DHT22;997;48.448;8.924;2023-06-10T12:40:37;28.90;94.80
1992;DHT22;997;48.448;8.924;2023-06-10T12:43:06;28.90;93.40
1992;DHT22;997;48.448;8.924;2023-06-10T12:45:33;29.10;94.90
1992;DHT22;997;48.448;8.924;2023-06-10T12:48:10;29.30;94.20
1992;DHT22;997;48.448;8.924;2023-06-10T12:50:38;29.40;94.50
1992;DHT22;997;48.448;8.924;2023-06-10T12:53:04;29.60;91.50
1992;DHT22;997;48.448;8.924;2023-06-10T12:55:30;29.60;93.20
1992;DHT22;997;48.448;8.924;2023-06-10T12:57:56;29.60;92.30
1992;DHT22;997;48.448;8.924;2023-06-10T13:00:22;29.50;92.30
1992;DHT22;997;48.448;8.924;2023-06-10T13:02:51;29.30;92.20
1992;DHT22;997;48.448;8.924;2023-06-10T13:05:18;29.00;91.20
1992;DHT22;997;48.448;8.924;2023-06-10T13:07:44;28.90;92.30
1992;DHT22;997;48.448;8.924;2023-06-10T13:10:10;28.70;92.60
1992;DHT22;997;48.448;8.924;2023-06-10T13:12:35;28.80;92.80
1992;DHT22;997;48.448;8.924;2023-06-10T13:15:02;29.00;94.20
1992;DHT22;997;48.448;8.924;2023-06-10T13:17:28;29.30;92.90
1992;DHT22;997;48.448;8.924;2023-06-10T13:19:53;29.50;91.60
1992;DHT22;997;48.448;8.924;2023-06-10T13:22:20;29.90;91.60
1992;DHT22;997;48.448;8.924;2023-06-10T13:24:45;30.10;91.00
1992;DHT22;997;48.448;8.924;2023-06-10T13:27:12;30.20;90.90
1992;DHT22;997;48.448;8.924;2023-06-10T13:29:39;30.10;90.20
1992;DHT22;997;48.448;8.924;2023-06-10T13:32:06;30.00;89.70
1992;DHT22;997;48.448;8.924;2023-06-10T13:34:32;30.00;88.10
1992;DHT22;997;48.448;8.924;2023-06-10T13:36:57;29.90;87.80
1992;DHT22;997;48.448;8.924;2023-06-10T13:39:24;29.70;87.40
1992;DHT22;997;48.448;8.924;2023-06-10T13:41:49;29.70;86.00
1992;DHT22;997;48.448;8.924;2023-06-10T13:44:15;29.70;86.00
1992;DHT22;997;48.448;8.924;2023-06-10T13:46:40;29.70;86.30
1992;DHT22;997;48.448;8.924;2023-06-10T13:49:06;29.50;84.90
1992;DHT22;997;48.448;8.924;2023-06-10T13:51:32;29.60;88.30
1992;DHT22;997;48.448;8.924;2023-06-10T13:53:57;29.60;85.50
1992;DHT22;997;48.448;8.924;2023-06-10T13:56:23;29.80;86.60
1992;DHT22;997;48.448;8.924;2023-06-10T13:58:49;30.10;86.30
1992;DHT22;997;48.448;8.924;2023-06-10T14:01:14;30.40;84.50
1992;DHT22;997;48.448;8.924;2023-06-10T14:03:40;30.70;81.50
1992;DHT22;997;48.448;8.924;2023-06-10T14:06:06;31.00;80.80
1992;DHT22;997;48.448;8.924;2023-06-10T14:08:31;31.30;80.00
1992;DHT22;997;48.448;8.924;2023-06-10T14:10:57;31.60;80.80
1992;DHT22;997;48.448;8.924;2023-06-10T14:13:24;32.10;79.20
1992;DHT22;997;48.448;8.924;2023-06-10T14:15:49;32.30;76.70
1992;DHT22;997;48.448;8.924;2023-06-10T14:18:15;32.40;76.30
1992;DHT22;997;48.448;8.924;2023-06-10T14:20:40;32.50;76.00
1992;DHT22;997;48.448;8.924;2023-06-10T14:23:06;32.40;77.30
1992;DHT22;997;48.448;8.924;2023-06-10T14:25:32;32.40;73.20
1992;DHT22;997;48.448;8.924;2023-06-10T14:27:57;32.60;73.50
1992;DHT22;997;48.448;8.924;2023-06-10T14:30:23;32.80;73.70
1992;DHT22;997;48.448;8.924;2023-06-10T14:32:49;32.60;72.50
1992;DHT22;997;48.448;8.924;2023-06-10T14:35:15;32.60;71.60
1992;DHT22;997;48.448;8.924;2023-06-10T14:37:40;32.50;68.50
1992;DHT22;997;48.448;8.924;2023-06-10T14:40:07;33.00;72.50
1992;DHT22;997;48.448;8.924;2023-06-10T14:42:32;33.40;71.40
1992;DHT22;997;48.448;8.924;2023-06-10T14:44:58;33.60;68.90
1992;DHT22;997;48.448;8.924;2023-06-10T14:47:24;33.40;68.00
1992;DHT22;997;48.448;8.924;2023-06-10T14:49:50;32.60;68.30
1992;DHT22;997;48.448;8.924;2023-06-10T14:52:16;32.30;70.50
1992;DHT22;997;48.448;8.924;2023-06-10T14:54:42;32.30;71.80
1992;DHT22;997;48.448;8.924;2023-06-10T14:57:07;32.50;72.80
1992;DHT22;997;48.448;8.924;2023-06-10T14:59:33;32.90;71.20
1992;DHT22;997;48.448;8.924;2023-06-10T15:02:00;32.50;68.70
1992;DHT22;997;48.448;8.924;2023-06-10T15:04:26;32.20;69.30
1992;DHT22;997;48.448;8.924;2023-06-10T15:06:52;32.50;71.20
1992;DHT22;997;48.448;8.924;2023-06-10T15:09:18;33.30;68.10
1992;DHT22;997;48.448;8.924;2023-06-10T15:11:44;33.70;67.10
1992;DHT22;997;48.448;8.924;2023-06-10T15:14:13;34.10;66.50
1992;DHT22;997;48.448;8.924;2023-06-10T15:16:39;34.00;66.50
1992;DHT22;997;48.448;8.924;2023-06-10T15:19:04;33.90;64.80
1992;DHT22;997;48.448;8.924;2023-06-10T15:21:33;34.00;65.50
1992;DHT22;997;48.448;8.924;2023-06-10T15:23:59;33.90;64.30
1992;DHT22;997;48.448;8.924;2023-06-10T15:26:25;33.60;65.00
1992;DHT22;997;48.448;8.924;2023-06-10T15:28:50;33.80;65.50
1992;DHT22;997;48.448;8.924;2023-06-10T15:31:16;34.00;64.60
1992;DHT22;997;48.448;8.924;2023-06-10T15:33:42;34.90;62.90
1992;DHT22;997;48.448;8.924;2023-06-10T15:36:08;35.40;62.50
1992;DHT22;997;48.448;8.924;2023-06-10T15:38:33;35.80;62.50
1992;DHT22;997;48.448;8.924;2023-06-10T15:40:59;36.10;60.80
1992;DHT22;997;48.448;8.924;2023-06-10T15:43:25;35.70;61.00
1992;DHT22;997;48.448;8.924;2023-06-10T15:45:50;36.00;61.10
1992;DHT22;997;48.448;8.924;2023-06-10T15:48:16;35.70;58.60
1992;DHT22;997;48.448;8.924;2023-06-10T15:50:42;35.40;58.10
1992;DHT22;997;48.448;8.924;2023-06-10T15:53:08;35.80;58.20
1992;DHT22;997;48.448;8.924;2023-06-10T15:55:33;36.10;58.30
1992;DHT22;997;48.448;8.924;2023-06-10T15:57:59;36.70;58.40
1992;DHT22;997;48.448;8.924;2023-06-10T16:00:29;36.50;58.60
1992;DHT22;997;48.448;8.924;2023-06-10T16:02:55;36.70;59.00
1992;DHT22;997;48.448;8.924;2023-06-10T16:05:21;36.40;58.80
1992;DHT22;997;48.448;8.924;2023-06-10T16:07:47;36.00;59.10
1992;DHT22;997;48.448;8.924;2023-06-10T16:10:13;35.40;59.40
1992;DHT22;997;48.448;8.924;2023-06-10T16:12:38;34.50;61.10
1992;DHT22;997;48.448;8.924;2023-06-10T16:15:04;33.50;62.70
1992;DHT22;997;48.448;8.924;2023-06-10T16:17:31;32.60;65.10
1992;DHT22;997;48.448;8.924;2023-06-10T16:19:57;32.20;66.60
1992;DHT22;997;48.448;8.924;2023-06-10T16:22:23;32.10;67.90
1992;DHT22;997;48.448;8.924;2023-06-10T16:24:49;32.20;68.90
1992;DHT22;997;48.448;8.924;2023-06-10T16:27:14;32.70;67.80
1992;DHT22;997;48.448;8.924;2023-06-10T16:29:40;33.20;67.40
1992;DHT22;997;48.448;8.924;2023-06-10T16:32:06;33.40;66.20
1992;DHT22;997;48.448;8.924;2023-06-10T16:34:32;34.00;65.80
1992;DHT22;997;48.448;8.924;2023-06-10T16:36:58;34.20;65.50
1992;DHT22;997;48.448;8.924;2023-06-10T16:39:23;34.50;64.90
1992;DHT22;997;48.448;8.924;2023-06-10T16:41:49;34.70;64.50
1992;DHT22;997;48.448;8.924;2023-06-10T16:44:15;34.60;64.20
1992;DHT22;997;48.448;8.924;2023-06-10T16:46:42;34.60;65.00
1992;DHT22;997;48.448;8.924;2023-06-10T16:49:08;34.90;64.70
1992;DHT22;997;48.448;8.924;2023-06-10T16:51:34;34.90;62.40
1992;DHT22;997;48.448;8.924;2023-06-10T16:53:59;35.00;60.00
1992;DHT22;997;48.448;8.924;2023-06-10T16:56:25;34.90;59.40
1992;DHT22;997;48.448;8.924;2023-06-10T16:58:52;34.80;60.00
1992;DHT22;997;48.448;8.924;2023-06-10T17:01:17;34.90;60.10
1992;DHT22;997;48.448;8.924;2023-06-10T17:03:43;35.00;59.70
1992;DHT22;997;48.448;8.924;2023-06-10T17:06:09;34.90;59.80
1992;DHT22;997;48.448;8.924;2023-06-10T17:08:35;34.50;59.70
1992;DHT22;997;48.448;8.924;2023-06-10T17:11:00;34.70;60.80
1992;DHT22;997;48.448;8.924;2023-06-10T17:13:26;34.60;59.60
1992;DHT22;997;48.448;8.924;2023-06-10T17:15:52;34.90;59.70
1992;DHT22;997;48.448;8.924;2023-06-10T17:18:18;35.10;59.70
1992;DHT22;997;48.448;8.924;2023-06-10T17:20:43;35.50;59.30
1992;DHT22;997;48.448;8.924;2023-06-10T17:23:10;35.70;59.40
1992;DHT22;997;48.448;8.924;2023-06-10T17:25:35;35.90;58.90
1992;DHT22;997;48.448;8.924;2023-06-10T17:28:02;35.90;58.10
1992;DHT22;997;48.448;8.924;2023-06-10T17:30:28;35.90;58.30
1992;DHT22;997;48.448;8.924;2023-06-10T17:32:53;35.70;58.50
1992;DHT22;997;48.448;8.924;2023-06-10T17:35:19;35.10;59.00
1992;DHT22;997;48.448;8.924;2023-06-10T17:37:45;34.90;59.30
1992;DHT22;997;48.448;8.924;2023-06-10T17:40:11;34.30;59.30
1992;DHT22;997;48.448;8.924;2023-06-10T17:42:38;34.20;59.80
1992;DHT22;997;48.448;8.924;2023-06-10T17:45:04;33.90;60.20
1992;DHT22;997;48.448;8.924;2023-06-10T17:47:30;33.50;61.30
1992;DHT22;997;48.448;8.924;2023-06-10T17:49:56;32.90;61.30
1992;DHT22;997;48.448;8.924;2023-06-10T17:52:21;32.20;63.30
1992;DHT22;997;48.448;8.924;2023-06-10T17:54:48;31.50;64.40
1992;DHT22;997;48.448;8.924;2023-06-10T17:57:14;30.60;65.10
1992;DHT22;997;48.448;8.924;2023-06-10T17:59:40;30.10;67.50
1992;DHT22;997;48.448;8.924;2023-06-10T18:02:07;29.60;68.40
1992;DHT22;997;48.448;8.924;2023-06-10T18:04:33;29.40;69.10
1992;DHT22;997;48.448;8.924;2023-06-10T18:06:59;29.10;69.40
1992;DHT22;997;48.448;8.924;2023-06-10T18:09:25;28.90;69.80
1992;DHT22;997;48.448;8.924;2023-06-10T18:11:52;28.70;70.00
1992;DHT22;997;48.448;8.924;2023-06-10T18:14:18;28.60;70.90
1992;DHT22;997;48.448;8.924;2023-06-10T18:16:43;28.60;71.70
1992;DHT22;997;48.448;8.924;2023-06-10T18:19:09;28.50;72.50
1992;DHT22;997;48.448;8.924;2023-06-10T18:21:35;28.20;71.70
1992;DHT22;997;48.448;8.924;2023-06-10T18:24:01;28.20;72.70
1992;DHT22;997;48.448;8.924;2023-06-10T18:26:27;28.00;72.60
1992;DHT22;997;48.448;8.924;2023-06-10T18:28:53;28.00;73.20
1992;DHT22;997;48.448;8.924;2023-06-10T18:31:19;27.90;73.20
1992;DHT22;997;48.448;8.924;2023-06-10T18:33:44;27.80;73.80
1992;DHT22;997;48.448;8.924;2023-06-10T18:36:10;27.70;75.20
1992;DHT22;997;48.448;8.924;2023-06-10T18:38:36;27.60;74.30
1992;DHT22;997;48.448;8.924;2023-06-10T18:41:01;27.60;75.10
1992;DHT22;997;48.448;8.924;2023-06-10T18:43:27;27.70;75.50
1992;DHT22;997;48.448;8.924;2023-06-10T18:45:53;27.70;75.70
1992;DHT22;997;48.448;8.924;2023-06-10T18:48:18;27.80;75.80
1992;DHT22;997;48.448;8.924;2023-06-10T18:50:44;27.80;76.80
1992;DHT22;997;48.448;8.924;2023-06-10T18:53:10;27.80;77.20
1992;DHT22;997;48.448;8.924;2023-06-10T18:55:35;27.80;76.80
1992;DHT22;997;48.448;8.924;2023-06-10T18:58:02;27.80;77.20
1992;DHT22;997;48.448;8.924;2023-06-10T19:00:30;27.80;77.80
1992;DHT22;997;48.448;8.924;2023-06-10T19:02:56;27.60;78.30
1992;DHT22;997;48.448;8.924;2023-06-10T19:05:22;27.40;78.90
1992;DHT22;997;48.448;8.924;2023-06-10T19:07:48;27.20;80.30
1992;DHT22;997;48.448;8.924;2023-06-10T19:10:14;27.00;80.90
1992;DHT22;997;48.448;8.924;2023-06-10T19:12:40;27.00;81.70
1992;DHT22;997;48.448;8.924;2023-06-10T19:15:06;27.00;82.20
1992;DHT22;997;48.448;8.924;2023-06-10T19:17:32;26.90;82.80
1992;DHT22;997;48.448;8.924;2023-06-10T19:19:58;26.70;82.50
1992;DHT22;997;48.448;8.924;2023-06-10T19:22:24;26.70;83.30
1992;DHT22;997;48.448;8.924;2023-06-10T19:25:04;26.50;83.50
1992;DHT22;997;48.448;8.924;2023-06-10T19:27:30;26.40;84.60
1992;DHT22;997;48.448;8.924;2023-06-10T19:29:56;26.40;84.60
1992;DHT22;997;48.448;8.924;2023-06-10T19:32:25;26.20;84.90
1992;DHT22;997;48.448;8.924;2023-06-10T19:34:51;26.10;85.10
1992;DHT22;997;48.448;8.924;2023-06-10T19:37:17;26.10;85.70
1992;DHT22;997;48.448;8.924;2023-06-10T19:39:42;26.00;85.80
1992;DHT22;997;48.448;8.924;2023-06-10T19:42:09;26.00;86.20
1992;DHT22;997;48.448;8.924;2023-06-10T19:44:36;26.00;86.40
1992;DHT22;997;48.448;8.924;2023-06-10T19:47:02;25.90;86.50
1992;DHT22;997;48.448;8.924;2023-06-10T19:49:27;25.70;86.60
1992;DHT22;997;48.448;8.924;2023-06-10T19:51:53;25.60;87.00
1992;DHT22;997;48.448;8.924;2023-06-10T19:54:19;25.40;87.50
1992;DHT22;997;48.448;8.924;2023-06-10T19:56:44;25.30;88.10
1992;DHT22;997;48.448;8.924;2023-06-10T19:59:10;25.20;88.70
1992;DHT22;997;48.448;8.924;2023-06-10T20:01:36;25.10;89.00
1992;DHT22;997;48.448;8.924;2023-06-10T20:04:02;25.10;89.20
1992;DHT22;997;48.448;8.924;2023-06-10T20:06:28;25.10;89.50
1992;DHT22;997;48.448;8.924;2023-06-10T20:08:53;25.10;89.80
1992;DHT22;997;48.448;8.924;2023-06-10T20:11:19;25.10;89.50
1992;DHT22;997;48.448;8.924;2023-06-10T20:13:46;25.10;90.10
1992;DHT22;997;48.448;8.924;2023-06-10T20:16:12;25.00;90.20
1992;DHT22;997;48.448;8.924;2023-06-10T20:18:38;25.00;90.10
1992;DHT22;997;48.448;8.924;2023-06-10T20:21:04;24.90;90.50
1992;DHT22;997;48.448;8.924;2023-06-10T20:23:29;24.90;90.60
1992;DHT22;997;48.448;8.924;2023-06-10T20:25:56;24.90;90.70
1992;DHT22;997;48.448;8.924;2023-06-10T20:28:24;24.80;90.90
1992;DHT22;997;48.448;8.924;2023-06-10T20:30:50;24.90;91.10
1992;DHT22;997;48.448;8.924;2023-06-10T20:33:15;24.90;91.10
1992;DHT22;997;48.448;8.924;2023-06-10T20:35:41;24.90;91.20
1992;DHT22;997;48.448;8.924;2023-06-10T20:38:09;24.90;91.40
1992;DHT22;997;48.448;8.924;2023-06-10T20:40:34;24.90;91.40
1992;DHT22;997;48.448;8.924;2023-06-10T20:43:00;24.70;91.50
1992;DHT22;997;48.448;8.924;2023-06-10T20:45:26;24.70;91.70
1992;DHT22;997;48.448;8.924;2023-06-10T20:47:51;24.70;92.00
1992;DHT22;997;48.448;8.924;2023-06-10T20:50:17;24.70;92.30
1992;DHT22;997;48.448;8.924;2023-06-10T20:52:42;24.60;92.50
1992;DHT22;997;48.448;8.924;2023-06-10T20:55:08;24.40;92.80
1992;DHT22;997;48.448;8.924;2023-06-10T20:57:34;24.30;93.20
1992;DHT22;997;48.448;8.924;2023-06-10T21:00:00;24.20;93.60
1992;DHT22;997;48.448;8.924;2023-06-10T21:02:26;24.20;93.80
1992;DHT22;997;48.448;8.924;2023-06-10T21:04:51;24.00;94.00
1992;DHT22;997;48.448;8.924;2023-06-10T21:07:17;24.00;94.20
1992;DHT22;997;48.448;8.924;2023-06-10T21:09:42;23.90;94.60
1992;DHT22;997;48.448;8.924;2023-06-10T21:12:08;23.90;95.00
1992;DHT22;997;48.448;8.924;2023-06-10T21:14:34;23.90;95.20
1992;DHT22;997;48.448;8.924;2023-06-10T21:17:00;23.80;95.40
1992;DHT22;997;48.448;8.924;2023-06-10T21:22:48;23.50;96.10
1992;DHT22;997;48.448;8.924;2023-06-10T21:25:13;23.40;96.80
1992;DHT22;997;48.448;8.924;2023-06-10T21:27:39;23.40;97.30
